createdAt,value
2022-08-10T00:00:23.062Z,81.60
2022-08-10T00:02:27.347Z,81.70
2022-08-10T00:04:31.689Z,81.30
2022-08-10T00:06:36.035Z,81.10
2022-08-10T00:08:40.598Z,80.90
2022-08-10T00:10:44.905Z,80.80
2022-08-10T00:12:49.255Z,80.70
2022-08-10T00:15:00.232Z,81.10
2022-08-10T00:17:06.238Z,80.90
2022-08-10T00:19:10.531Z,81.00
2022-08-10T00:21:15.408Z,81.10
2022-08-10T00:23:20.041Z,81.40
2022-08-10T00:25:24.589Z,81.30
2022-08-10T00:27:53.035Z,81.50
2022-08-10T00:29:54.710Z,81.40
2022-08-10T00:31:59.691Z,81.60
2022-08-10T00:34:05.668Z,81.30
2022-08-10T00:36:11.130Z,81.10
2022-08-10T00:38:15.461Z,81.30
2022-08-10T00:40:19.919Z,80.80
2022-08-10T00:42:42.039Z,80.70
2022-08-10T00:44:50.033Z,81.00
2022-08-10T00:46:54.402Z,80.90
2022-08-10T00:49:00.657Z,81.30
2022-08-10T00:51:07.469Z,82.20
2022-08-10T00:53:11.990Z,82.80
2022-08-10T00:55:16.908Z,83.50
2022-08-10T00:57:21.740Z,84.80
2022-08-10T00:59:26.574Z,85.50
2022-08-10T01:02:09.376Z,85.50
2022-08-10T01:04:39.675Z,85.60
2022-08-10T01:06:31.511Z,85.90
2022-08-10T01:08:44.777Z,86.90
2022-08-10T01:11:00.464Z,87.50
2022-08-10T01:13:11.130Z,87.90
2022-08-10T01:15:21.574Z,88.00
2022-08-10T01:17:49.708Z,88.30
2022-08-10T01:20:03.399Z,88.50
2022-08-10T01:22:41.989Z,88.90
2022-08-10T01:25:22.508Z,89.50
2022-08-10T01:27:33.850Z,89.50
2022-08-10T01:29:55.152Z,89.90
2022-08-10T01:32:04.795Z,90.80
2022-08-10T01:34:16.293Z,91.40
2022-08-10T01:36:32.401Z,91.90
2022-08-10T01:38:41.519Z,92.40
2022-08-10T01:40:51.544Z,92.50
2022-08-10T01:43:08.627Z,92.60
2022-08-10T01:45:17.030Z,92.90
2022-08-10T01:47:41.956Z,92.80
2022-08-10T01:49:48.193Z,92.90
2022-08-10T01:51:56.445Z,93.10
2022-08-10T01:54:12.818Z,93.10
2022-08-10T01:56:20.677Z,93.30
2022-08-10T01:58:28.319Z,93.40
2022-08-10T02:00:41.027Z,93.50
2022-08-10T02:02:48.660Z,93.50
2022-08-10T02:04:56.032Z,93.60
2022-08-10T02:07:01.875Z,93.60
2022-08-10T02:09:08.888Z,93.40
2022-08-10T02:11:14.508Z,93.20
2022-08-10T02:13:40.297Z,92.90
2022-08-10T02:16:01.688Z,92.70
2022-08-10T02:18:08.895Z,92.70
2022-08-10T02:20:19.711Z,92.50
2022-08-10T02:22:45.807Z,92.40
2022-08-10T02:24:51.130Z,92.50
2022-08-10T02:27:07.702Z,92.30
2022-08-10T02:29:21.541Z,92.30
2022-08-10T02:31:28.512Z,92.30
2022-08-10T02:33:38.074Z,92.20
2022-08-10T02:35:55.032Z,91.90
2022-08-10T02:38:06.140Z,91.80
2022-08-10T02:42:18.456Z,91.50
2022-08-10T02:45:22.445Z,91.50
2022-08-10T02:45:29.204Z,91.30
2022-08-10T02:47:50.964Z,91.20
2022-08-10T02:50:04.478Z,91.00
2022-08-10T02:52:13.803Z,91.00
2022-08-10T02:54:25.489Z,91.20
2022-08-10T02:56:37.135Z,90.90
2022-08-10T02:58:45.006Z,90.80
2022-08-10T03:00:53.088Z,90.70
2022-08-10T03:03:00.817Z,90.60
2022-08-10T03:05:08.694Z,90.60
2022-08-10T03:07:16.426Z,91.00
2022-08-10T03:09:21.752Z,91.00
2022-08-10T03:12:35.202Z,91.50
2022-08-10T03:13:59.578Z,91.10
2022-08-10T03:16:05.507Z,91.20
2022-08-10T03:18:13.352Z,91.10
2022-08-10T03:20:37.119Z,91.00
2022-08-10T03:22:46.537Z,90.80
2022-08-10T03:24:52.743Z,90.70
2022-08-10T03:26:58.686Z,90.50
2022-08-10T03:29:05.091Z,90.40
2022-08-10T03:31:09.663Z,90.40
2022-08-10T03:33:17.423Z,90.20
2022-08-10T03:35:23.378Z,90.20
2022-08-10T03:37:29.056Z,90.30
2022-08-10T03:39:33.832Z,90.00
2022-08-10T03:41:53.320Z,89.50
2022-08-10T03:43:59.812Z,89.00
2022-08-10T03:46:09.586Z,88.50
2022-08-10T03:48:16.347Z,87.10
2022-08-10T03:50:28.872Z,85.90
2022-08-10T03:52:46.625Z,85.20
2022-08-10T03:54:51.777Z,85.20
2022-08-10T03:56:56.791Z,84.60
2022-08-10T03:59:01.861Z,85.40
2022-08-10T04:01:07.043Z,84.60
2022-08-10T04:03:11.963Z,84.90
2022-08-10T04:05:18.083Z,85.70
2022-08-10T04:07:22.685Z,85.30
2022-08-10T04:09:53.945Z,85.00
2022-08-10T04:11:55.237Z,85.30
2022-08-10T04:13:59.599Z,85.60
2022-08-10T04:16:07.500Z,86.20
2022-08-10T04:18:12.075Z,85.60
2022-08-10T04:20:22.715Z,86.10
2022-08-10T04:22:29.701Z,86.60
2022-08-10T04:24:37.755Z,86.60
2022-08-10T04:26:42.510Z,86.60
2022-08-10T04:28:46.835Z,86.30
2022-08-10T04:30:53.827Z,86.40
2022-08-10T04:33:00.138Z,86.10
2022-08-10T04:35:06.083Z,85.70
2022-08-10T04:37:13.112Z,85.40
2022-08-10T04:39:18.247Z,85.40
2022-08-10T04:41:22.999Z,85.30
2022-08-10T04:43:27.980Z,85.50
2022-08-10T04:45:48.894Z,85.20
2022-08-10T04:48:02.970Z,85.10
2022-08-10T04:50:09.010Z,84.90
2022-08-10T04:52:15.698Z,84.80
2022-08-10T04:54:19.994Z,83.90
2022-08-10T04:56:31.691Z,83.90
2022-08-10T04:58:36.915Z,83.10
2022-08-10T05:00:41.936Z,84.00
2022-08-10T05:02:46.771Z,84.60
2022-08-10T05:04:51.313Z,84.70
2022-08-10T05:06:55.764Z,84.90
2022-08-10T05:09:02.585Z,84.90
2022-08-10T05:11:07.051Z,84.70
2022-08-10T05:13:11.545Z,84.30
2022-08-10T05:15:18.546Z,84.80
2022-08-10T05:17:23.155Z,85.00
2022-08-10T05:20:03.000Z,85.00
2022-08-10T05:22:02.214Z,85.10
2022-08-10T05:24:10.137Z,85.20
2022-08-10T05:26:14.597Z,84.20
2022-08-10T05:28:19.001Z,83.10
2022-08-10T05:30:30.496Z,82.50
2022-08-10T05:32:56.560Z,82.80
2022-08-10T05:35:00.746Z,82.30
2022-08-10T05:38:10.859Z,81.50
2022-08-10T05:39:42.191Z,79.40
2022-08-10T05:41:52.735Z,77.30
2022-08-10T05:43:58.144Z,76.40
2022-08-10T05:46:19.014Z,74.50
2022-08-10T05:48:54.415Z,73.80
2022-08-10T05:50:50.118Z,72.70
2022-08-10T05:52:54.701Z,71.90
2022-08-10T05:55:02.941Z,71.60
2022-08-10T05:57:08.326Z,70.60
2022-08-10T05:59:14.350Z,70.10
2022-08-10T06:01:23.581Z,69.50
2022-08-10T06:03:33.302Z,69.30
2022-08-10T06:05:38.403Z,69.10
2022-08-10T06:07:48.025Z,68.80
2022-08-10T06:09:59.417Z,69.10
2022-08-10T06:12:27.102Z,70.20
2022-08-10T06:14:53.050Z,69.10
2022-08-10T06:17:04.858Z,68.90
2022-08-10T06:19:09.124Z,69.20
2022-08-10T06:21:14.555Z,69.00
2022-08-10T06:23:19.524Z,69.80
2022-08-10T06:26:09.961Z,69.90
2022-08-10T06:27:50.216Z,70.70
2022-08-10T06:29:56.605Z,71.00
2022-08-10T06:32:02.266Z,71.10
2022-08-10T06:34:07.822Z,72.20
2022-08-10T06:36:14.176Z,72.60
2022-08-10T06:38:19.464Z,72.40
2022-08-10T06:40:26.286Z,72.40
2022-08-10T06:42:33.692Z,73.20
2022-08-10T06:44:45.209Z,73.20
2022-08-10T06:46:53.872Z,72.60
2022-08-10T06:49:02.474Z,73.00
2022-08-10T06:51:08.815Z,74.10
2022-08-10T06:53:15.441Z,74.60
2022-08-10T06:55:55.222Z,75.10
2022-08-10T06:57:59.771Z,75.50
2022-08-10T07:00:09.146Z,75.30
2022-08-10T07:02:17.087Z,74.90
2022-08-10T07:04:32.534Z,75.20
2022-08-10T07:06:39.771Z,75.00
2022-08-10T07:08:45.179Z,74.90
2022-08-10T07:10:50.164Z,75.40
2022-08-10T07:12:59.136Z,75.50
2022-08-10T07:15:06.627Z,75.90
2022-08-10T07:17:15.852Z,75.90
2022-08-10T07:19:22.693Z,76.40
2022-08-10T07:21:28.426Z,76.70
2022-08-10T07:23:57.558Z,76.70
2022-08-10T07:25:59.370Z,76.60
2022-08-10T07:28:05.353Z,76.90
2022-08-10T07:30:12.551Z,77.80
2022-08-10T07:32:17.231Z,78.80
2022-08-10T07:34:29.014Z,78.70
2022-08-10T07:36:36.870Z,78.50
2022-08-10T07:38:44.396Z,78.60
2022-08-10T07:40:52.069Z,78.00
2022-08-10T07:43:01.042Z,77.50
2022-08-10T07:45:06.679Z,77.50
2022-08-10T07:47:16.383Z,77.90
2022-08-10T07:49:24.997Z,77.10
2022-08-10T07:51:30.036Z,77.80
2022-08-10T07:53:40.051Z,77.60
2022-08-10T07:56:04.295Z,78.20
2022-08-10T07:58:10.050Z,78.20
2022-08-10T08:00:15.465Z,78.00
2022-08-10T08:02:27.332Z,78.80
2022-08-10T08:04:33.489Z,79.20
2022-08-10T08:06:38.847Z,79.10
2022-08-10T08:08:49.198Z,79.20
2022-08-10T08:10:54.809Z,79.20
2022-08-10T08:13:01.494Z,78.80
2022-08-10T08:16:14.381Z,78.10
2022-08-10T08:17:36.288Z,79.10
2022-08-10T08:19:46.257Z,78.70
2022-08-10T08:24:10.493Z,77.60
2022-08-10T08:24:34.467Z,77.80
2022-08-10T08:26:42.151Z,78.00
2022-08-10T08:28:52.111Z,78.10
2022-08-10T08:30:57.755Z,77.90
2022-08-10T08:33:04.567Z,77.90
2022-08-10T08:35:11.451Z,77.80
2022-08-10T08:38:32.517Z,77.80
2022-08-10T08:39:47.174Z,77.50
2022-08-10T08:42:05.505Z,77.70
2022-08-10T08:44:21.074Z,76.90
2022-08-10T08:46:58.916Z,77.40
2022-08-10T08:50:08.479Z,77.70
2022-08-10T08:52:22.728Z,77.70
2022-08-10T08:54:39.938Z,78.30
2022-08-10T08:56:54.214Z,77.70
2022-08-10T08:59:19.227Z,77.70
2022-08-10T09:01:38.196Z,77.20
2022-08-10T09:04:02.045Z,77.70
2022-08-10T09:06:24.503Z,77.70
2022-08-10T09:08:46.603Z,77.00
2022-08-10T09:10:58.882Z,76.10
2022-08-10T09:13:08.121Z,75.20
2022-08-10T09:15:40.713Z,72.40
2022-08-10T09:17:56.438Z,74.10
2022-08-10T09:20:06.781Z,72.80
2022-08-10T09:22:23.715Z,72.60
2022-08-10T09:24:34.255Z,72.20
2022-08-10T09:26:48.140Z,72.30
2022-08-10T09:29:12.619Z,72.70
2022-08-10T09:31:25.979Z,72.90
2022-08-10T09:36:21.610Z,71.80
2022-08-10T09:36:33.428Z,72.00
2022-08-10T09:38:49.056Z,71.70
2022-08-10T09:41:09.142Z,70.90
2022-08-10T09:43:26.814Z,71.30
2022-08-10T09:45:40.755Z,71.70
2022-08-10T09:48:02.298Z,71.20
2022-08-10T09:50:20.455Z,71.10
2022-08-10T09:52:34.387Z,70.90
2022-08-10T09:54:54.725Z,70.60
2022-08-10T09:57:44.876Z,69.50
2022-08-10T10:00:00.838Z,69.60
2022-08-10T10:02:22.821Z,69.80
2022-08-10T10:04:34.830Z,70.10
2022-08-10T10:06:45.187Z,71.10
2022-08-10T10:09:10.251Z,71.20
2022-08-10T10:11:22.391Z,70.70
2022-08-10T10:13:41.629Z,70.50
2022-08-10T10:16:09.844Z,71.10
2022-08-10T10:18:30.422Z,70.40
2022-08-10T10:20:40.686Z,69.30
2022-08-10T10:23:00.181Z,70.00
2022-08-10T10:25:20.799Z,69.30
2022-08-10T10:27:36.632Z,67.80
2022-08-10T10:29:58.486Z,67.40
2022-08-10T10:32:09.917Z,67.80
2022-08-10T10:34:22.584Z,67.20
2022-08-10T10:36:36.427Z,67.50
2022-08-10T10:38:42.968Z,68.60
2022-08-10T10:40:53.397Z,68.10
2022-08-10T10:43:08.927Z,67.80
2022-08-10T10:45:20.006Z,67.90
2022-08-10T10:47:46.500Z,68.00
2022-08-10T10:49:59.329Z,68.80
2022-08-10T10:52:16.191Z,68.30
2022-08-10T10:54:36.019Z,68.50
2022-08-10T10:56:53.389Z,68.50
2022-08-10T10:59:55.390Z,68.00
2022-08-10T11:01:55.262Z,68.00
2022-08-10T11:04:15.502Z,67.60
2022-08-10T11:06:39.529Z,67.60
2022-08-10T11:08:52.012Z,67.90
2022-08-10T11:11:00.909Z,68.40
2022-08-10T11:14:27.174Z,68.30
2022-08-10T11:16:02.763Z,67.90
2022-08-10T11:18:14.015Z,67.50
2022-08-10T11:20:28.579Z,67.50
2022-08-10T11:22:38.003Z,67.70
2022-08-10T11:24:50.545Z,67.10
2022-08-10T11:27:02.791Z,66.90
2022-08-10T11:29:15.434Z,66.60
2022-08-10T11:31:28.449Z,66.80
2022-08-10T11:34:11.467Z,66.50
2022-08-10T11:36:27.162Z,66.70
2022-08-10T11:38:52.012Z,66.40
2022-08-10T11:42:06.754Z,66.30
2022-08-10T11:43:39.403Z,66.70
2022-08-10T11:45:52.434Z,66.50
2022-08-10T11:48:09.687Z,66.10
2022-08-10T11:50:22.067Z,65.70
2022-08-10T11:52:35.775Z,65.90
2022-08-10T11:54:44.987Z,66.60
2022-08-10T11:57:01.331Z,66.00
2022-08-10T11:59:24.264Z,66.30
2022-08-10T12:01:31.922Z,66.80
2022-08-10T12:03:40.453Z,66.40
2022-08-10T12:05:51.916Z,67.20
2022-08-10T12:09:23.939Z,68.00
2022-08-10T12:10:27.881Z,67.90
2022-08-10T12:12:38.115Z,68.00
2022-08-10T12:14:49.753Z,67.80
2022-08-10T12:17:00.657Z,67.70
2022-08-10T12:19:16.473Z,67.50
2022-08-10T12:21:24.579Z,67.10
2022-08-10T12:23:39.319Z,67.40
2022-08-10T12:25:57.679Z,68.10
2022-08-10T12:28:11.007Z,68.00
2022-08-10T12:30:17.545Z,67.50
2022-08-10T12:32:32.485Z,67.90
2022-08-10T12:34:50.127Z,67.20
2022-08-10T12:37:05.804Z,67.20
2022-08-10T12:39:17.135Z,67.30
2022-08-10T12:41:41.598Z,67.20
2022-08-10T12:44:06.543Z,66.80
2022-08-10T12:46:19.765Z,67.00
2022-08-10T12:48:31.583Z,67.20
2022-08-10T12:50:43.127Z,67.10
2022-08-10T12:52:57.513Z,66.90
2022-08-10T12:55:06.525Z,66.80
2022-08-10T12:57:13.711Z,66.40
2022-08-10T12:59:19.676Z,66.60
2022-08-10T13:01:27.678Z,66.20
2022-08-10T13:04:20.693Z,66.40
2022-08-10T13:06:22.628Z,66.60
2022-08-10T13:08:44.774Z,67.20
2022-08-10T13:11:00.973Z,67.80
2022-08-10T13:13:05.696Z,67.80
2022-08-10T13:15:43.146Z,67.90
2022-08-10T13:17:42.698Z,67.60
2022-08-10T13:19:55.414Z,67.30
2022-08-10T13:22:05.236Z,66.90
2022-08-10T13:24:13.078Z,66.60
2022-08-10T13:26:21.560Z,67.40
2022-08-10T13:28:36.951Z,66.90
2022-08-10T13:30:44.616Z,66.70
2022-08-10T13:32:55.987Z,66.50
2022-08-10T13:35:04.969Z,66.40
2022-08-10T13:37:11.567Z,68.30
2022-08-10T13:39:18.323Z,66.90
2022-08-10T13:41:27.045Z,66.40
2022-08-10T13:43:31.445Z,66.90
2022-08-10T13:45:42.310Z,67.60
2022-08-10T13:47:52.121Z,67.60
2022-08-10T13:50:00.616Z,67.70
2022-08-10T13:52:12.774Z,68.50
2022-08-10T13:54:19.572Z,68.50
2022-08-10T13:56:24.947Z,64.90
2022-08-10T13:58:31.886Z,65.30
2022-08-10T14:00:39.973Z,65.40
2022-08-10T14:02:49.665Z,65.70
2022-08-10T14:04:55.207Z,65.50
2022-08-10T14:07:01.604Z,65.70
2022-08-10T14:09:10.956Z,66.00
2022-08-10T14:11:19.651Z,65.70
2022-08-10T14:13:25.945Z,66.00
2022-08-10T14:15:35.482Z,66.70
2022-08-10T14:17:44.727Z,66.90
2022-08-10T14:19:58.936Z,67.10
2022-08-10T14:22:03.971Z,67.10
2022-08-10T14:24:20.376Z,67.10
2022-08-10T14:26:29.786Z,67.20
2022-08-10T14:28:37.261Z,67.30
2022-08-10T14:30:44.109Z,67.10
2022-08-10T14:32:50.592Z,67.20
2022-08-10T14:36:15.578Z,66.30
2022-08-10T14:37:25.802Z,66.60
2022-08-10T14:39:35.841Z,66.90
2022-08-10T14:42:02.916Z,67.20
2022-08-10T14:44:09.224Z,67.50
2022-08-10T14:46:20.890Z,67.10
2022-08-10T14:48:32.991Z,67.00
2022-08-10T14:50:37.979Z,66.80
2022-08-10T14:53:09.635Z,67.30
2022-08-10T14:55:19.359Z,66.90
2022-08-10T14:58:19.534Z,67.70
2022-08-10T15:00:23.266Z,68.20
2022-08-10T15:02:39.093Z,68.30
2022-08-10T15:04:46.891Z,68.70
2022-08-10T15:06:57.609Z,68.50
2022-08-10T15:09:12.337Z,69.10
2022-08-10T15:12:14.127Z,69.10
2022-08-10T15:14:38.769Z,69.60
2022-08-10T15:16:38.536Z,69.40
2022-08-10T15:18:58.207Z,69.30
2022-08-10T15:21:17.017Z,69.40
2022-08-10T15:23:30.975Z,69.80
2022-08-10T15:25:57.641Z,69.80
2022-08-10T15:28:10.828Z,70.50
2022-08-10T15:30:17.334Z,70.60
2022-08-10T15:32:41.658Z,70.60
2022-08-10T15:35:05.887Z,70.70
2022-08-10T15:37:40.699Z,71.10
2022-08-10T15:40:21.698Z,71.20
2022-08-10T15:42:09.134Z,71.60
2022-08-10T15:44:37.540Z,71.80
2022-08-10T15:46:51.747Z,72.00
2022-08-10T15:49:08.781Z,72.20
2022-08-10T15:51:22.160Z,71.90
2022-08-10T15:53:48.973Z,72.20
2022-08-10T15:55:58.381Z,72.00
2022-08-10T15:58:08.947Z,71.90
2022-08-10T16:00:17.943Z,71.80
2022-08-10T16:02:28.938Z,71.90
2022-08-10T16:04:36.812Z,71.30
2022-08-10T16:06:44.704Z,71.30
2022-08-10T16:08:55.915Z,71.50
2022-08-10T16:11:06.206Z,71.80
2022-08-10T16:13:50.518Z,72.00
2022-08-10T16:15:41.107Z,72.30
2022-08-10T16:17:54.527Z,72.60
2022-08-10T16:20:01.583Z,72.30
2022-08-10T16:22:35.289Z,72.60
2022-08-10T16:24:38.391Z,72.40
2022-08-10T16:26:48.107Z,72.60
2022-08-10T16:28:59.154Z,72.60
2022-08-10T16:31:08.363Z,72.30
2022-08-10T16:33:18.339Z,72.10
2022-08-10T16:35:24.713Z,72.00
2022-08-10T16:37:58.410Z,72.70
2022-08-10T16:40:02.877Z,72.10
2022-08-10T16:42:20.352Z,72.40
2022-08-10T16:44:30.500Z,72.50
2022-08-10T16:46:35.627Z,72.50
2022-08-10T16:48:49.476Z,72.80
2022-08-10T16:50:58.207Z,73.30
2022-08-10T16:53:03.788Z,72.90
2022-08-10T16:55:23.654Z,73.40
2022-08-10T16:57:31.196Z,72.00
2022-08-10T16:59:39.755Z,72.00
2022-08-10T17:01:51.327Z,71.90
2022-08-10T17:04:09.945Z,72.10
2022-08-10T17:06:20.961Z,71.70
2022-08-10T17:08:26.468Z,71.80
2022-08-10T17:10:32.863Z,71.50
2022-08-10T17:12:40.370Z,71.50
2022-08-10T17:14:45.429Z,71.30
2022-08-10T17:17:00.460Z,70.80
2022-08-10T17:19:13.140Z,71.40
2022-08-10T17:21:21.917Z,71.10
2022-08-10T17:23:28.791Z,70.90
2022-08-10T17:25:48.586Z,71.50
2022-08-10T17:28:04.050Z,71.20
2022-08-10T17:30:32.242Z,71.00
2022-08-10T17:32:44.959Z,71.10
2022-08-10T17:34:57.267Z,71.20
2022-08-10T17:37:06.720Z,71.50
2022-08-10T17:39:13.932Z,71.60
2022-08-10T17:41:24.750Z,72.10
2022-08-10T17:44:00.707Z,72.60
2022-08-10T17:45:56.947Z,72.50
2022-08-10T17:48:06.684Z,72.80
2022-08-10T17:50:14.230Z,72.50
2022-08-10T17:52:22.810Z,72.30
2022-08-10T17:54:31.284Z,72.10
2022-08-10T17:56:38.049Z,72.10
2022-08-10T17:58:49.781Z,72.20
2022-08-10T18:00:57.482Z,72.50
2022-08-10T18:03:25.285Z,72.80
2022-08-10T18:05:35.061Z,73.10
2022-08-10T18:07:45.621Z,73.50
2022-08-10T18:09:52.901Z,73.60
2022-08-10T18:12:02.036Z,74.20
2022-08-10T18:14:09.956Z,74.60
2022-08-10T18:16:16.599Z,74.50
2022-08-10T18:18:24.307Z,74.80
2022-08-10T18:20:35.985Z,74.90
2022-08-10T18:22:45.537Z,75.00
2022-08-10T18:24:52.097Z,74.80
2022-08-10T18:27:09.108Z,75.10
2022-08-10T18:29:18.689Z,75.40
2022-08-10T18:31:26.388Z,75.40
2022-08-10T18:33:35.724Z,75.60
2022-08-10T18:35:43.008Z,75.80
2022-08-10T18:37:50.313Z,76.10
2022-08-10T18:40:03.685Z,76.50
2022-08-10T18:42:16.908Z,76.40
2022-08-10T18:44:55.632Z,76.50
2022-08-10T18:47:03.446Z,76.70
2022-08-10T18:49:14.106Z,76.20
2022-08-10T18:51:26.273Z,76.00
2022-08-10T18:53:36.097Z,76.10
2022-08-10T18:55:46.231Z,75.70
2022-08-10T18:58:22.797Z,75.70
2022-08-10T19:00:34.995Z,75.80
2022-08-10T19:03:10.210Z,75.50
2022-08-10T19:05:31.179Z,75.60
2022-08-10T19:08:03.368Z,75.20
2022-08-10T19:10:21.692Z,75.00
2022-08-10T19:12:41.107Z,74.90
2022-08-10T19:14:59.070Z,74.80
2022-08-10T19:17:13.764Z,74.60
2022-08-10T19:19:38.437Z,74.50
2022-08-10T19:21:47.810Z,74.20
2022-08-10T19:24:06.156Z,74.50
2022-08-10T19:26:43.969Z,74.00
2022-08-10T19:28:59.461Z,73.60
2022-08-10T19:31:11.367Z,73.80
2022-08-10T19:33:26.358Z,73.70
2022-08-10T19:36:03.431Z,73.50
2022-08-10T19:38:17.332Z,73.50
2022-08-10T19:40:46.131Z,73.60
2022-08-10T19:42:56.571Z,73.50
2022-08-10T19:45:58.214Z,73.20
2022-08-10T19:47:46.830Z,73.20
2022-08-10T19:49:56.715Z,73.10
2022-08-10T19:52:05.072Z,73.40
2022-08-10T19:54:21.353Z,73.30
2022-08-10T19:56:35.003Z,73.00
2022-08-10T19:58:47.217Z,73.20
2022-08-10T20:00:58.723Z,73.20
2022-08-10T20:03:12.419Z,73.10
2022-08-10T20:05:21.794Z,72.90
2022-08-10T20:07:35.344Z,72.90
2022-08-10T20:09:47.340Z,72.90
2022-08-10T20:12:00.098Z,73.20
2022-08-10T20:14:21.522Z,72.90
2022-08-10T20:16:38.481Z,73.10
2022-08-10T20:18:45.377Z,72.90
2022-08-10T20:20:51.089Z,72.90
2022-08-10T20:23:04.586Z,72.80
2022-08-10T20:25:14.223Z,73.10
2022-08-10T20:27:58.160Z,72.90
2022-08-10T20:29:59.425Z,72.90
2022-08-10T20:32:06.891Z,72.80
2022-08-10T20:34:24.076Z,72.70
2022-08-10T20:36:32.455Z,73.20
2022-08-10T20:38:44.769Z,72.60
2022-08-10T20:40:55.383Z,72.60
2022-08-10T20:43:08.214Z,72.70
2022-08-10T20:45:21.848Z,72.70
2022-08-10T20:47:54.831Z,73.20
2022-08-10T20:50:11.249Z,72.50
2022-08-10T20:52:16.258Z,72.30
2022-08-10T20:54:29.573Z,72.40
2022-08-10T20:56:44.132Z,72.30
2022-08-10T20:59:20.034Z,72.30
2022-08-10T21:02:07.482Z,72.20
2022-08-10T21:04:13.617Z,72.10
2022-08-10T21:06:44.495Z,72.40
2022-08-10T21:08:58.502Z,72.70
2022-08-10T21:11:09.580Z,72.60
2022-08-10T21:13:33.187Z,72.70
2022-08-10T21:16:02.178Z,73.20
2022-08-10T21:18:22.416Z,73.20
2022-08-10T21:20:47.677Z,73.40
2022-08-10T21:23:05.312Z,73.20
2022-08-10T21:25:15.379Z,73.50
2022-08-10T21:27:36.408Z,73.50
2022-08-10T21:29:56.006Z,73.30
2022-08-10T21:32:18.880Z,73.50
2022-08-10T21:34:54.440Z,73.70
2022-08-10T21:37:08.002Z,73.50
2022-08-10T21:39:20.490Z,74.20
2022-08-10T21:41:58.420Z,74.40
2022-08-10T21:44:34.632Z,74.50
2022-08-10T21:47:06.400Z,74.90
2022-08-10T21:49:39.304Z,74.60
2022-08-10T21:52:07.253Z,74.80
2022-08-10T21:54:35.839Z,74.40
2022-08-10T21:57:07.895Z,74.40
2022-08-10T21:59:42.223Z,74.40
2022-08-10T22:02:09.866Z,73.90
2022-08-10T22:04:33.277Z,73.70
2022-08-10T22:06:59.082Z,74.60
2022-08-10T22:09:26.721Z,74.60
2022-08-10T22:12:04.770Z,75.10
2022-08-10T22:14:33.557Z,75.90
2022-08-10T22:17:04.000Z,75.80
2022-08-10T22:19:27.096Z,76.20
2022-08-10T22:22:02.056Z,76.40
2022-08-10T22:24:41.314Z,76.30
2022-08-10T22:27:46.070Z,76.70
2022-08-10T22:30:07.122Z,77.20
2022-08-10T22:32:39.086Z,77.50
2022-08-10T22:35:21.291Z,77.50
2022-08-10T22:37:56.148Z,77.80
2022-08-10T22:40:23.337Z,77.70
2022-08-10T22:42:59.266Z,77.90
2022-08-10T22:45:33.554Z,78.10
2022-08-10T22:47:55.527Z,78.10
2022-08-10T22:50:03.456Z,78.60
2022-08-10T22:52:20.232Z,78.50
2022-08-10T22:54:50.203Z,78.50
2022-08-10T22:57:11.917Z,78.20
2022-08-10T22:59:16.428Z,77.80
2022-08-10T23:03:56.857Z,78.10
2022-08-10T23:06:07.677Z,78.40
2022-08-10T23:08:29.408Z,78.90
2022-08-10T23:10:40.344Z,79.00
2022-08-10T23:12:49.798Z,79.00
2022-08-10T23:15:13.854Z,78.80
2022-08-10T23:18:00.498Z,78.60
2022-08-10T23:20:09.633Z,78.60
2022-08-10T23:22:16.744Z,78.50
2022-08-10T23:24:27.176Z,78.80
2022-08-10T23:26:34.146Z,79.20
2022-08-10T23:28:59.863Z,79.30
2022-08-10T23:31:11.228Z,79.60
2022-08-10T23:33:15.481Z,79.40
2022-08-10T23:36:08.834Z,79.40
2022-08-10T23:37:49.244Z,79.70
2022-08-10T23:39:55.391Z,80.40
2022-08-10T23:42:07.442Z,80.00
2022-08-10T23:44:13.062Z,80.30
2022-08-10T23:46:26.425Z,80.20
2022-08-10T23:48:34.327Z,80.20
2022-08-10T23:50:40.640Z,81.00
2022-08-10T23:53:00.726Z,81.40
2022-08-10T23:55:09.608Z,81.10
2022-08-10T23:57:18.981Z,81.30
2022-08-10T23:59:26.333Z,81.10
